Login to view Products
 
Saturday, August 08, 2020 (09:33 UTC)
Al Ain International Airport
ICAO: OMAL
IATA: AAN
  • METAR OMAL 080900Z 20012KT CAVOK 41/15 Q0996 NOSIG=
  • TAF OMAL 080500Z 0806/0912 20012KT 8000 NSC BECMG 0807/0809 27010KT BECMG 0816/0818 18005KT BECMG 0905/0907 34010KT=
D:\Input Parser\Destinations\Final\05\OMALL061205001608361760.txt
1